Time;durP1;ratioP1;P1;durP2;ratioP2;P2;SDS_P1;SDS_P2;PMS_P1;PMS_P2;Temp;Humidity;BMP_temperature;BMP_pressure;BME280_temperature;BME280_humidity;BME280_pressure;Samples;Min_cycle;Max_cycle;Signal;HPM_P1;HPM_P2
2022/07/13 00:01:38;;;;;;;3.30;0.77;;;;;;;;;;8282902;28;20037;-62
2022/07/13 00:05:39;;;;;;;0.60;0.60;;;;;;;;;;8283136;28;21067;-62
2022/07/13 00:09:39;;;;;;;0.70;0.70;;;;;;;;;;8284417;28;20080;-62
2022/07/13 00:13:39;;;;;;;1.33;0.70;;;;;;;;;;8282586;28;20073;-63
2022/07/13 00:17:39;;;;;;;3.65;0.70;;;;;;;;;;8282017;28;20045;-62
2022/07/13 00:21:40;;;;;;;0.50;0.50;;;;;;;;;;8282254;28;20617;-61
2022/07/13 00:25:40;;;;;;;0.77;0.60;;;;;;;;;;8283567;28;20128;-63
2022/07/13 00:29:40;;;;;;;0.98;0.60;;;;;;;;;;8281799;28;20077;-64
2022/07/13 00:33:40;;;;;;;0.60;0.60;;;;;;;;;;8280766;28;20030;-62
2022/07/13 00:37:41;;;;;;;1.58;0.60;;;;;;;;;;8282468;28;20445;-63
2022/07/13 00:41:45;;;;;;;0.50;0.50;;;;;;;;;;8280822;28;20051;-62
2022/07/13 00:45:46;;;;;;;0.65;0.60;;;;;;;;;;8282619;28;20889;-62
2022/07/13 00:49:46;;;;;;;0.70;0.70;;;;;;;;;;8283470;28;20029;-62
2022/07/13 00:53:46;;;;;;;2.75;0.77;;;;;;;;;;8285565;28;20032;-62
2022/07/13 00:57:46;;;;;;;0.70;0.70;;;;;;;;;;8289176;28;20033;-62
2022/07/13 01:01:47;;;;;;;0.75;0.70;;;;;;;;;;8287744;28;20045;-62
2022/07/13 01:05:47;;;;;;;0.80;0.80;;;;;;;;;;8288261;28;20029;-62
2022/07/13 01:09:47;;;;;;;3.60;0.90;;;;;;;;;;8285541;28;20056;-62
2022/07/13 01:13:48;;;;;;;0.63;0.63;;;;;;;;;;8285713;28;20045;-62
2022/07/13 01:17:48;;;;;;;2.40;0.80;;;;;;;;;;8308802;28;20033;-61
2022/07/13 01:21:51;;;;;;;1.30;0.70;;;;;;;;;;8322067;28;20036;-62
2022/07/13 01:25:55;;;;;;;1.20;0.70;;;;;;;;;;8319961;28;20075;-62
2022/07/13 01:29:56;;;;;;;2.97;0.70;;;;;;;;;;8320025;28;20029;-62
2022/07/13 01:33:56;;;;;;;2.90;0.70;;;;;;;;;;8318258;28;20987;-62
2022/07/13 01:37:56;;;;;;;2.92;0.80;;;;;;;;;;8320152;28;20835;-62
2022/07/13 01:41:57;;;;;;;0.90;0.70;;;;;;;;;;8320867;28;20162;-62
2022/07/13 01:45:57;;;;;;;1.27;0.67;;;;;;;;;;8311440;28;20085;-62
2022/07/13 01:49:57;;;;;;;0.82;0.70;;;;;;;;;;8288914;28;20362;-62
2022/07/13 01:53:57;;;;;;;0.80;0.80;;;;;;;;;;8287599;28;20045;-62
2022/07/13 01:57:59;;;;;;;0.60;0.60;;;;;;;;;;8289744;28;20034;-62
2022/07/13 02:01:59;;;;;;;0.60;0.60;;;;;;;;;;8283621;28;20451;-62
2022/07/13 02:05:59;;;;;;;0.80;0.80;;;;;;;;;;8285016;28;20076;-62
2022/07/13 02:09:59;;;;;;;1.05;0.70;;;;;;;;;;8285454;28;20052;-62
2022/07/13 02:13:59;;;;;;;0.70;0.60;;;;;;;;;;8285305;28;20030;-62
2022/07/13 02:18:00;;;;;;;0.98;0.90;;;;;;;;;;8286432;28;20040;-62
2022/07/13 02:22:00;;;;;;;0.60;0.60;;;;;;;;;;8284337;28;20469;-62
2022/07/13 02:26:00;;;;;;;1.23;0.65;;;;;;;;;;8285173;28;20287;-62
2022/07/13 02:30:00;;;;;;;6.30;0.60;;;;;;;;;;8285850;28;20036;-62
2022/07/13 02:34:01;;;;;;;0.73;0.73;;;;;;;;;;8281441;28;20095;-62
2022/07/13 02:38:01;;;;;;;0.60;0.60;;;;;;;;;;8286603;28;20025;-62
2022/07/13 02:42:01;;;;;;;0.95;0.60;;;;;;;;;;8282499;28;20017;-62
2022/07/13 02:46:01;;;;;;;0.87;0.70;;;;;;;;;;8283887;28;20049;-61
2022/07/13 02:50:02;;;;;;;2.05;0.70;;;;;;;;;;8284370;28;20029;-62
2022/07/13 02:54:02;;;;;;;0.95;0.80;;;;;;;;;;8285686;28;20029;-62
2022/07/13 02:58:03;;;;;;;0.68;0.68;;;;;;;;;;8283965;28;20033;-62
2022/07/13 03:02:04;;;;;;;1.10;0.80;;;;;;;;;;8284408;28;20030;-62
2022/07/13 03:06:04;;;;;;;1.20;0.73;;;;;;;;;;8283935;28;20276;-62
2022/07/13 03:10:04;;;;;;;1.97;0.67;;;;;;;;;;8284935;28;20621;-62
2022/07/13 03:14:05;;;;;;;1.05;0.80;;;;;;;;;;8285904;28;20037;-62
2022/07/13 03:18:07;;;;;;;1.35;0.70;;;;;;;;;;8283569;28;20203;-61
2022/07/13 03:22:07;;;;;;;0.77;0.70;;;;;;;;;;8282386;28;20149;-62
2022/07/13 03:26:08;;;;;;;0.60;0.60;;;;;;;;;;8283332;28;20026;-62
2022/07/13 03:30:08;;;;;;;1.17;0.70;;;;;;;;;;8283131;28;20034;-62
2022/07/13 03:34:08;;;;;;;2.28;1.02;;;;;;;;;;8283788;28;20032;-61
2022/07/13 03:38:08;;;;;;;2.00;0.80;;;;;;;;;;8282069;28;20025;-62
2022/07/13 03:42:09;;;;;;;1.80;0.70;;;;;;;;;;8284042;28;20096;-62
2022/07/13 03:46:09;;;;;;;0.60;0.60;;;;;;;;;;8283876;28;20037;-61
2022/07/13 03:50:09;;;;;;;0.87;0.60;;;;;;;;;;8284795;28;20107;-62
2022/07/13 03:54:09;;;;;;;1.75;0.70;;;;;;;;;;8282511;28;20036;-61
2022/07/13 03:58:10;;;;;;;0.95;0.50;;;;;;;;;;8280320;28;20037;-61
2022/07/13 04:02:10;;;;;;;0.90;0.60;;;;;;;;;;8279180;28;20033;-61
2022/07/13 04:06:10;;;;;;;1.00;0.80;;;;;;;;;;8283190;28;20041;-61
2022/07/13 04:10:11;;;;;;;0.60;0.60;;;;;;;;;;8280416;28;20025;-63
2022/07/13 04:14:11;;;;;;;0.80;0.77;;;;;;;;;;8283079;28;20033;-61
2022/07/13 04:18:11;;;;;;;0.68;0.68;;;;;;;;;;8280852;28;20048;-62
2022/07/13 04:22:11;;;;;;;1.30;0.70;;;;;;;;;;8281916;28;20080;-61
2022/07/13 04:26:11;;;;;;;0.63;0.63;;;;;;;;;;8281424;28;20025;-62
2022/07/13 04:30:12;;;;;;;0.75;0.60;;;;;;;;;;8282525;28;20026;-62
2022/07/13 04:34:12;;;;;;;1.27;0.70;;;;;;;;;;8280781;28;20036;-62
2022/07/13 04:38:13;;;;;;;0.68;0.68;;;;;;;;;;8282330;28;21148;-62
2022/07/13 04:42:13;;;;;;;3.45;0.70;;;;;;;;;;8282609;28;20056;-62
2022/07/13 04:46:13;;;;;;;2.70;0.80;;;;;;;;;;8281076;28;20042;-61
2022/07/13 04:50:13;;;;;;;0.88;0.80;;;;;;;;;;8280454;28;20028;-62
2022/07/13 04:54:17;;;;;;;0.95;0.77;;;;;;;;;;8283957;28;20037;-62
2022/07/13 04:58:17;;;;;;;2.38;0.88;;;;;;;;;;8282116;28;20029;-62
2022/07/13 05:02:17;;;;;;;1.88;1.10;;;;;;;;;;8282924;28;20045;-62
2022/07/13 05:06:18;;;;;;;0.70;0.70;;;;;;;;;;8284240;28;20053;-62
2022/07/13 05:10:18;;;;;;;0.73;0.70;;;;;;;;;;8281754;28;20053;-61
2022/07/13 05:14:18;;;;;;;1.85;0.80;;;;;;;;;;8283114;28;20278;-61
2022/07/13 05:18:19;;;;;;;1.50;0.73;;;;;;;;;;8284255;28;20052;-62
2022/07/13 05:22:19;;;;;;;0.87;0.70;;;;;;;;;;8283759;28;20310;-62
2022/07/13 05:26:19;;;;;;;1.85;0.70;;;;;;;;;;8279607;28;20459;-62
2022/07/13 05:30:19;;;;;;;2.30;0.70;;;;;;;;;;8280871;28;20746;-62
2022/07/13 05:34:19;;;;;;;4.78;1.13;;;;;;;;;;8283224;28;20425;-61
2022/07/13 05:38:20;;;;;;;6.57;0.80;;;;;;;;;;8282285;28;20125;-62
2022/07/13 05:42:20;;;;;;;2.15;0.90;;;;;;;;;;8285775;28;20091;-62
2022/07/13 05:46:20;;;;;;;4.17;0.80;;;;;;;;;;8285731;28;20045;-62
2022/07/13 05:50:20;;;;;;;4.35;1.20;;;;;;;;;;8286872;28;20132;-62
2022/07/13 05:54:21;;;;;;;8.68;1.08;;;;;;;;;;8289352;28;20037;-62
2022/07/13 05:58:21;;;;;;;14.15;1.40;;;;;;;;;;8288689;28;20132;-62
2022/07/13 06:02:21;;;;;;;19.73;2.25;;;;;;;;;;8286479;28;20033;-62
2022/07/13 06:06:21;;;;;;;30.97;2.30;;;;;;;;;;8286715;28;20026;-62
2022/07/13 06:10:22;;;;;;;18.45;2.03;;;;;;;;;;8286360;28;20038;-62
2022/07/13 06:14:22;;;;;;;18.63;1.80;;;;;;;;;;8280015;28;20079;-62
2022/07/13 06:18:22;;;;;;;20.38;2.10;;;;;;;;;;8285112;28;20299;-61
2022/07/13 06:22:23;;;;;;;25.52;1.85;;;;;;;;;;8284700;28;20804;-61
2022/07/13 06:26:23;;;;;;;12.57;1.83;;;;;;;;;;8284272;28;20714;-61
2022/07/13 06:30:23;;;;;;;18.48;1.60;;;;;;;;;;8286327;28;20038;-63
2022/07/13 06:34:23;;;;;;;9.27;1.65;;;;;;;;;;8285803;28;20113;-62
2022/07/13 06:38:23;;;;;;;12.55;1.35;;;;;;;;;;8284482;28;20898;-62
2022/07/13 06:42:24;;;;;;;11.30;1.53;;;;;;;;;;8283492;28;20024;-62
2022/07/13 06:46:25;;;;;;;14.77;1.30;;;;;;;;;;8293641;28;20637;-63
2022/07/13 06:50:26;;;;;;;5.05;1.25;;;;;;;;;;8289530;28;20933;-61
2022/07/13 06:54:26;;;;;;;4.40;1.30;;;;;;;;;;8286090;28;20036;-62
2022/07/13 06:58:26;;;;;;;5.32;1.33;;;;;;;;;;8282922;28;20037;-62
2022/07/13 07:02:26;;;;;;;5.47;1.50;;;;;;;;;;8284574;28;20590;-62
2022/07/13 07:06:26;;;;;;;7.40;1.20;;;;;;;;;;8285231;28;20337;-63
2022/07/13 07:10:27;;;;;;;3.40;1.10;;;;;;;;;;8283808;28;20458;-62
2022/07/13 07:14:27;;;;;;;2.50;1.23;;;;;;;;;;8286586;28;20124;-62
2022/07/13 07:18:27;;;;;;;3.75;1.10;;;;;;;;;;8284216;28;20041;-62
2022/07/13 07:22:28;;;;;;;6.00;1.03;;;;;;;;;;8285544;28;20025;-62
2022/07/13 07:26:30;;;;;;;3.42;1.00;;;;;;;;;;8283660;28;20091;-62
2022/07/13 07:30:30;;;;;;;8.05;1.20;;;;;;;;;;8280704;28;20500;-62
2022/07/13 07:34:30;;;;;;;7.77;1.40;;;;;;;;;;8283647;28;20481;-62
2022/07/13 07:38:31;;;;;;;6.10;1.35;;;;;;;;;;8284643;28;20467;-62
2022/07/13 07:42:31;;;;;;;3.65;1.05;;;;;;;;;;8282799;28;20058;-62
2022/07/13 07:46:31;;;;;;;2.20;0.97;;;;;;;;;;8283799;28;20100;-63
2022/07/13 07:50:32;;;;;;;0.85;0.60;;;;;;;;;;8283601;28;20284;-62
2022/07/13 07:54:32;;;;;;;6.13;1.08;;;;;;;;;;8283337;28;20037;-62
2022/07/13 07:58:32;;;;;;;8.77;1.27;;;;;;;;;;8283742;28;20993;-62
2022/07/13 08:02:32;;;;;;;0.95;0.80;;;;;;;;;;8280905;28;20037;-62
2022/07/13 08:06:33;;;;;;;4.25;1.00;;;;;;;;;;8284380;28;20128;-62
2022/07/13 08:10:33;;;;;;;3.20;0.90;;;;;;;;;;8282224;28;20026;-62
2022/07/13 08:14:33;;;;;;;1.13;0.80;;;;;;;;;;8282068;28;20044;-62
2022/07/13 08:18:34;;;;;;;1.60;0.60;;;;;;;;;;8284678;28;20899;-62
2022/07/13 08:22:34;;;;;;;2.03;0.60;;;;;;;;;;8284299;28;20022;-62
2022/07/13 08:26:34;;;;;;;0.77;0.70;;;;;;;;;;8284632;28;20674;-62
2022/07/13 08:30:37;;;;;;;0.55;0.50;;;;;;;;;;8281541;28;20261;-62
2022/07/13 08:38:56;;;;;;;2.17;0.60;;;;;;;;;;8285040;28;20036;-63
2022/07/13 08:42:56;;;;;;;1.80;0.50;;;;;;;;;;8284138;28;20021;-62
2022/07/13 08:46:57;;;;;;;0.50;0.50;;;;;;;;;;8282432;28;20030;-62
2022/07/13 08:50:58;;;;;;;1.88;0.70;;;;;;;;;;8283566;28;20029;-63
2022/07/13 08:54:58;;;;;;;1.33;0.70;;;;;;;;;;8283939;28;20029;-63
2022/07/13 08:58:59;;;;;;;0.70;0.60;;;;;;;;;;8283709;28;20025;-63
2022/07/13 09:02:59;;;;;;;1.13;0.57;;;;;;;;;;8280677;28;20585;-63
2022/07/13 09:06:59;;;;;;;0.88;0.60;;;;;;;;;;8281706;28;20032;-62
2022/07/13 09:11:00;;;;;;;1.17;0.50;;;;;;;;;;8282180;28;20065;-63
2022/07/13 09:15:02;;;;;;;0.57;0.50;;;;;;;;;;8280582;28;20043;-66
2022/07/13 09:19:02;;;;;;;3.33;0.57;;;;;;;;;;8287020;28;20325;-62
2022/07/13 09:23:05;;;;;;;4.22;0.88;;;;;;;;;;8287551;28;20024;-62
2022/07/13 09:27:05;;;;;;;4.47;0.70;;;;;;;;;;8287085;28;20461;-62
2022/07/13 09:31:05;;;;;;;0.75;0.60;;;;;;;;;;8284637;28;20092;-63
2022/07/13 09:35:06;;;;;;;6.03;0.70;;;;;;;;;;8287770;28;20033;-62
2022/07/13 09:39:12;;;;;;;6.97;0.70;;;;;;;;;;8289739;28;21072;-62
2022/07/13 09:47:30;;;;;;;3.75;0.70;;;;;;;;;;8285199;28;20037;-62
2022/07/13 09:51:32;;;;;;;4.70;0.70;;;;;;;;;;8287707;28;20056;-62
2022/07/13 09:55:33;;;;;;;4.63;0.60;;;;;;;;;;8287952;28;20188;-62
2022/07/13 09:59:34;;;;;;;3.42;0.80;;;;;;;;;;8286624;28;20030;-63
2022/07/13 10:03:35;;;;;;;4.88;0.70;;;;;;;;;;8288155;28;20065;-63
2022/07/13 10:07:35;;;;;;;7.10;0.80;;;;;;;;;;8286134;28;20040;-63
2022/07/13 10:11:36;;;;;;;2.33;0.80;;;;;;;;;;8288087;28;20457;-62
2022/07/13 10:15:37;;;;;;;2.60;0.70;;;;;;;;;;8285870;28;20045;-64
2022/07/13 10:19:37;;;;;;;;;;;;;;;;;;8287714;28;20140;-62
2022/07/13 10:23:39;;;;;;;1.55;0.65;;;;;;;;;;8285997;28;19925;-63
2022/07/13 10:27:41;;;;;;;0.93;0.55;;;;;;;;;;8286539;28;20034;-62
2022/07/13 10:31:43;;;;;;;1.13;0.60;;;;;;;;;;8284322;28;20497;-62
2022/07/13 10:35:50;;;;;;;0.55;0.50;;;;;;;;;;8285859;28;20025;-62
2022/07/13 10:40:13;;;;;;;0.68;0.50;;;;;;;;;;8285747;28;20224;-63
2022/07/13 10:44:32;;;;;;;0.50;0.50;;;;;;;;;;8285181;28;20767;-62
2022/07/13 10:48:34;;;;;;;1.15;0.60;;;;;;;;;;8284446;28;20041;-62
2022/07/13 10:52:40;;;;;;;0.95;0.60;;;;;;;;;;8285604;28;20032;-62
2022/07/13 10:57:00;;;;;;;0.50;0.50;;;;;;;;;;8284513;28;20126;-62
2022/07/13 11:01:22;;;;;;;0.60;0.50;;;;;;;;;;8282921;28;20037;-62
2022/07/13 11:05:25;;;;;;;1.63;0.50;;;;;;;;;;8286821;28;20033;-63
2022/07/13 11:09:25;;;;;;;0.50;0.50;;;;;;;;;;8285117;28;20049;-62
2022/07/13 11:13:27;;;;;;;2.97;0.60;;;;;;;;;;8287583;28;20025;-63
2022/07/13 11:17:28;;;;;;;3.38;0.50;;;;;;;;;;8283639;28;20041;-62
2022/07/13 11:21:48;;;;;;;2.20;0.50;;;;;;;;;;8286428;28;20836;-63
2022/07/13 11:25:50;;;;;;;0.77;0.52;;;;;;;;;;8284348;28;20025;-62
2022/07/13 11:29:50;;;;;;;;;;;;;;;;;;8287540;28;20136;-62
2022/07/13 11:33:50;;;;;;;2.25;0.50;;;;;;;;;;8283428;28;19917;-62
2022/07/13 11:37:51;;;;;;;1.20;0.60;;;;;;;;;;8283324;28;20795;-62
2022/07/13 11:41:51;;;;;;;0.73;0.60;;;;;;;;;;8285454;28;20754;-62
2022/07/13 11:45:51;;;;;;;1.73;0.70;;;;;;;;;;8283436;28;20030;-63
2022/07/13 11:49:53;;;;;;;0.60;0.60;;;;;;;;;;8283343;28;20896;-63
2022/07/13 11:53:53;;;;;;;;;;;;;;;;;;8282415;28;20776;-63
2022/07/13 11:57:53;;;;;;;0.80;0.70;;;;;;;;;;8281863;28;19921;-62
2022/07/13 12:01:53;;;;;;;0.73;0.70;;;;;;;;;;8281488;28;20038;-63
2022/07/13 12:05:57;;;;;;;2.87;0.60;;;;;;;;;;8282705;28;20036;-63
2022/07/13 12:10:05;;;;;;;1.50;0.63;;;;;;;;;;8284195;28;20619;-63
2022/07/13 12:14:05;;;;;;;0.50;0.50;;;;;;;;;;8280157;28;20025;-63
2022/07/13 12:18:05;;;;;;;2.05;0.60;;;;;;;;;;8282769;28;20156;-62
2022/07/13 12:22:07;;;;;;;0.77;0.60;;;;;;;;;;8283516;28;20470;-62
2022/07/13 12:26:07;;;;;;;4.03;0.70;;;;;;;;;;8284904;28;20037;-62
2022/07/13 12:30:09;;;;;;;1.63;0.50;;;;;;;;;;8278515;28;20028;-63
2022/07/13 12:34:10;;;;;;;0.68;0.50;;;;;;;;;;8282527;28;20040;-62
2022/07/13 12:38:12;;;;;;;3.05;0.40;;;;;;;;;;8279324;28;20026;-64
2022/07/13 12:42:12;;;;;;;4.28;0.50;;;;;;;;;;8281714;28;20033;-62
2022/07/13 12:46:12;;;;;;;3.38;0.50;;;;;;;;;;8280640;28;20132;-62
2022/07/13 12:50:29;;;;;;;0.70;0.60;;;;;;;;;;8285010;28;20116;-62
2022/07/13 12:54:48;;;;;;;3.92;0.50;;;;;;;;;;8287447;28;20145;-62
2022/07/13 12:58:50;;;;;;;0.50;0.50;;;;;;;;;;8287429;28;20039;-63
2022/07/13 13:02:51;;;;;;;1.35;0.60;;;;;;;;;;8283593;28;20042;-63
2022/07/13 13:06:51;;;;;;;1.45;0.60;;;;;;;;;;8286867;28;20033;-62
2022/07/13 13:10:51;;;;;;;0.85;0.52;;;;;;;;;;8286573;28;20056;-62
2022/07/13 13:14:51;;;;;;;0.98;0.50;;;;;;;;;;8285902;28;20040;-62
2022/07/13 13:18:51;;;;;;;0.50;0.50;;;;;;;;;;8284874;28;21082;-62
2022/07/13 13:22:52;;;;;;;0.68;0.50;;;;;;;;;;8285818;28;20832;-62
2022/07/13 13:26:52;;;;;;;2.07;0.57;;;;;;;;;;8286485;28;20025;-62
2022/07/13 13:30:52;;;;;;;0.50;0.50;;;;;;;;;;8284979;28;20457;-63
2022/07/13 13:34:52;;;;;;;5.05;0.60;;;;;;;;;;8286261;28;20040;-62
2022/07/13 13:38:52;;;;;;;0.70;0.70;;;;;;;;;;8285238;28;20022;-63
2022/07/13 13:42:53;;;;;;;1.08;0.40;;;;;;;;;;8284427;28;20044;-63
2022/07/13 13:46:53;;;;;;;0.40;0.40;;;;;;;;;;8283438;28;20045;-62
2022/07/13 13:50:54;;;;;;;0.40;0.40;;;;;;;;;;8286407;28;20075;-63
2022/07/13 13:54:54;;;;;;;1.55;0.55;;;;;;;;;;8283755;28;20025;-63
2022/07/13 13:58:54;;;;;;;0.60;0.60;;;;;;;;;;8283781;28;20038;-62
2022/07/13 14:02:55;;;;;;;0.63;0.60;;;;;;;;;;8282694;28;20307;-63
2022/07/13 14:06:55;;;;;;;0.60;0.60;;;;;;;;;;8286228;28;20036;-62
2022/07/13 14:10:55;;;;;;;0.63;0.63;;;;;;;;;;8287927;28;20389;-63
2022/07/13 14:14:55;;;;;;;0.63;0.60;;;;;;;;;;8287427;28;20639;-62
2022/07/13 14:18:55;;;;;;;0.50;0.50;;;;;;;;;;8285849;28;20465;-62
2022/07/13 14:22:57;;;;;;;1.93;0.60;;;;;;;;;;8284847;28;20033;-62
2022/07/13 14:26:57;;;;;;;0.80;0.40;;;;;;;;;;8287055;28;20025;-62
2022/07/13 14:30:57;;;;;;;1.48;0.60;;;;;;;;;;8285417;28;20540;-62
2022/07/13 14:34:58;;;;;;;1.85;0.60;;;;;;;;;;8286986;28;20434;-63
2022/07/13 14:38:59;;;;;;;0.98;0.68;;;;;;;;;;8286205;28;20072;-62
2022/07/13 14:42:59;;;;;;;;;;;;;;;;;;8286726;28;20025;-62
2022/07/13 14:46:59;;;;;;;0.95;0.60;;;;;;;;;;8283884;28;20110;-63
2022/07/13 14:50:59;;;;;;;0.50;0.50;;;;;;;;;;8287098;28;20080;-62
2022/07/13 14:55:00;;;;;;;2.40;0.63;;;;;;;;;;8283597;28;20029;-62
2022/07/13 14:59:00;;;;;;;0.60;0.60;;;;;;;;;;8285038;28;20064;-62
2022/07/13 15:03:00;;;;;;;1.20;0.60;;;;;;;;;;8283441;28;20133;-63
2022/07/13 15:07:00;;;;;;;1.30;0.82;;;;;;;;;;8287899;28;20022;-63
2022/07/13 15:11:00;;;;;;;1.85;0.70;;;;;;;;;;8287002;28;20029;-63
2022/07/13 15:15:01;;;;;;;1.85;0.50;;;;;;;;;;8285907;28;20517;-63
2022/07/13 15:19:01;;;;;;;1.03;0.60;;;;;;;;;;8285224;28;20528;-63
2022/07/13 15:23:01;;;;;;;1.77;0.67;;;;;;;;;;8285061;28;20800;-62
2022/07/13 15:27:02;;;;;;;2.03;0.77;;;;;;;;;;8285081;28;20025;-62
2022/07/13 15:31:02;;;;;;;0.77;0.53;;;;;;;;;;8287033;28;20040;-63
2022/07/13 15:35:04;;;;;;;1.15;0.60;;;;;;;;;;8286912;28;20284;-62
2022/07/13 15:39:04;;;;;;;;;;;;;;;;;;8286772;28;20030;-63
2022/07/13 15:43:04;;;;;;;2.08;0.80;;;;;;;;;;8283643;28;19924;-64
2022/07/13 15:47:05;;;;;;;3.63;0.82;;;;;;;;;;8285098;28;20441;-63
2022/07/13 15:51:05;;;;;;;2.53;0.90;;;;;;;;;;8286222;28;20037;-62
2022/07/13 15:55:06;;;;;;;1.90;0.80;;;;;;;;;;8283771;28;20112;-62
2022/07/13 15:59:06;;;;;;;4.73;1.00;;;;;;;;;;8283076;28;20033;-63
2022/07/13 16:03:07;;;;;;;2.57;0.97;;;;;;;;;;8284465;28;20474;-62
2022/07/13 16:07:07;;;;;;;4.45;1.00;;;;;;;;;;8282391;28;20116;-62
2022/07/13 16:11:07;;;;;;;7.28;0.90;;;;;;;;;;8283620;28;20375;-62
2022/07/13 16:15:08;;;;;;;3.20;0.80;;;;;;;;;;8285839;28;20033;-62
2022/07/13 16:19:08;;;;;;;3.90;1.00;;;;;;;;;;8281710;28;20278;-61
2022/07/13 16:23:08;;;;;;;2.22;0.80;;;;;;;;;;8281862;28;20030;-62
2022/07/13 16:27:09;;;;;;;4.00;1.00;;;;;;;;;;8282329;28;20029;-61
2022/07/13 16:31:09;;;;;;;1.08;0.80;;;;;;;;;;8282952;28;20128;-62
2022/07/13 16:35:09;;;;;;;1.83;0.70;;;;;;;;;;8286445;28;20041;-62
2022/07/13 16:39:10;;;;;;;0.95;0.80;;;;;;;;;;8283301;28;20044;-63
2022/07/13 16:43:10;;;;;;;1.60;0.77;;;;;;;;;;8283274;28;20544;-65
2022/07/13 16:47:10;;;;;;;3.80;0.80;;;;;;;;;;8280984;28;20100;-62
2022/07/13 16:51:10;;;;;;;2.33;1.00;;;;;;;;;;8282658;28;20065;-62
2022/07/13 16:55:11;;;;;;;2.50;0.82;;;;;;;;;;8281566;28;20033;-62
2022/07/13 16:59:11;;;;;;;6.22;0.80;;;;;;;;;;8283525;28;20758;-62
2022/07/13 17:03:11;;;;;;;1.73;0.90;;;;;;;;;;8283074;28;20042;-62
2022/07/13 17:07:12;;;;;;;1.55;0.90;;;;;;;;;;8281424;28;20033;-62
2022/07/13 17:11:14;;;;;;;5.60;0.90;;;;;;;;;;8280134;28;20031;-62
2022/07/13 17:15:14;;;;;;;0.70;0.70;;;;;;;;;;8282548;28;20932;-62
2022/07/13 17:19:16;;;;;;;3.58;0.85;;;;;;;;;;8280733;28;20026;-62
2022/07/13 17:23:16;;;;;;;;;;;;;;;;;;8280041;28;20595;-62
2022/07/13 17:27:16;;;;;;;0.73;0.70;;;;;;;;;;8276159;28;19920;-62
2022/07/13 17:31:17;;;;;;;0.70;0.67;;;;;;;;;;8278431;28;20076;-62
2022/07/13 17:35:17;;;;;;;2.10;0.80;;;;;;;;;;8275836;28;20036;-62
2022/07/13 17:39:17;;;;;;;4.78;0.77;;;;;;;;;;8282208;28;20362;-61
2022/07/13 17:43:19;;;;;;;3.10;0.70;;;;;;;;;;8281922;28;20021;-63
2022/07/13 17:47:19;;;;;;;1.35;0.73;;;;;;;;;;8280829;28;20119;-62
2022/07/13 17:51:20;;;;;;;0.80;0.70;;;;;;;;;;8285168;28;20552;-62
2022/07/13 17:55:21;;;;;;;1.27;0.80;;;;;;;;;;8281852;28;20030;-62
2022/07/13 17:59:21;;;;;;;0.80;0.80;;;;;;;;;;8283332;28;20033;-62
2022/07/13 18:03:21;;;;;;;0.60;0.60;;;;;;;;;;8282963;28;20096;-63
2022/07/13 18:07:21;;;;;;;4.37;0.80;;;;;;;;;;8279043;28;20028;-63
2022/07/13 18:11:22;;;;;;;6.55;1.10;;;;;;;;;;8281600;28;20268;-62
2022/07/13 18:15:22;;;;;;;3.42;0.98;;;;;;;;;;8281844;28;21396;-62
2022/07/13 18:19:22;;;;;;;5.97;1.00;;;;;;;;;;8295651;28;20463;-62
2022/07/13 18:27:41;;;;;;;4.28;0.90;;;;;;;;;;8282173;28;20035;-63
2022/07/13 18:31:41;;;;;;;6.87;1.20;;;;;;;;;;8279643;28;20851;-62
2022/07/13 18:35:42;;;;;;;4.75;1.08;;;;;;;;;;8285043;28;20064;-62
2022/07/13 18:39:42;;;;;;;3.97;1.13;;;;;;;;;;8284131;28;20051;-62
2022/07/13 18:43:42;;;;;;;5.33;1.40;;;;;;;;;;8281487;28;20025;-62
2022/07/13 18:47:43;;;;;;;6.55;1.10;;;;;;;;;;8280452;28;20556;-62
2022/07/13 18:51:43;;;;;;;4.30;1.20;;;;;;;;;;8278900;28;20032;-62
2022/07/13 18:55:43;;;;;;;2.40;1.10;;;;;;;;;;8279980;28;20433;-62
2022/07/13 18:59:43;;;;;;;2.30;1.00;;;;;;;;;;8280154;28;20025;-62
2022/07/13 19:03:44;;;;;;;2.60;1.02;;;;;;;;;;8283116;28;20172;-62
2022/07/13 19:07:44;;;;;;;0.90;0.90;;;;;;;;;;8280054;28;20520;-62
2022/07/13 19:11:44;;;;;;;1.23;0.82;;;;;;;;;;8280186;28;20079;-62
2022/07/13 19:15:45;;;;;;;3.70;1.00;;;;;;;;;;8280589;28;20042;-62
2022/07/13 19:19:45;;;;;;;3.07;0.93;;;;;;;;;;8279943;28;20824;-61
2022/07/13 19:23:45;;;;;;;3.03;0.83;;;;;;;;;;8281360;28;20036;-62
2022/07/13 19:27:50;;;;;;;2.22;1.00;;;;;;;;;;8281335;28;20034;-61
2022/07/13 19:31:50;;;;;;;1.45;1.00;;;;;;;;;;8280000;28;20033;-62
2022/07/13 19:35:50;;;;;;;1.67;0.88;;;;;;;;;;8279099;28;20061;-63
2022/07/13 19:39:51;;;;;;;0.95;0.90;;;;;;;;;;8278792;28;20033;-62
2022/07/13 19:43:51;;;;;;;1.13;0.80;;;;;;;;;;8282494;28;20025;-65
2022/07/13 19:47:51;;;;;;;2.47;0.90;;;;;;;;;;8279967;28;20048;-62
2022/07/13 19:51:52;;;;;;;1.17;1.00;;;;;;;;;;8283637;28;20037;-61
2022/07/13 19:55:52;;;;;;;0.90;0.90;;;;;;;;;;8280351;28;20292;-62
2022/07/13 19:59:52;;;;;;;1.20;1.10;;;;;;;;;;8280501;28;20044;-62
2022/07/13 20:03:53;;;;;;;2.85;1.20;;;;;;;;;;8279082;28;20041;-62
2022/07/13 20:07:53;;;;;;;3.70;1.05;;;;;;;;;;8282239;28;20112;-62
2022/07/13 20:11:53;;;;;;;8.73;1.70;;;;;;;;;;8278211;28;20033;-62
2022/07/13 20:15:53;;;;;;;4.53;1.20;;;;;;;;;;8280252;28;20299;-62
2022/07/13 20:19:54;;;;;;;2.53;1.23;;;;;;;;;;8280477;28;20021;-62
2022/07/13 20:23:55;;;;;;;1.50;1.20;;;;;;;;;;8281589;28;20132;-62
2022/07/13 20:27:55;;;;;;;3.33;1.27;;;;;;;;;;8282083;28;20040;-62
2022/07/13 20:31:56;;;;;;;3.10;1.10;;;;;;;;;;8281900;28;20045;-62
2022/07/13 20:35:56;;;;;;;4.05;1.30;;;;;;;;;;8281733;28;20120;-62
2022/07/13 20:39:56;;;;;;;8.27;1.40;;;;;;;;;;8281824;28;20030;-62
2022/07/13 20:43:57;;;;;;;2.35;1.40;;;;;;;;;;8282185;28;20021;-62
2022/07/13 20:47:57;;;;;;;3.90;1.47;;;;;;;;;;8282574;28;20029;-62
2022/07/13 20:51:57;;;;;;;4.15;1.30;;;;;;;;;;8281216;28;20092;-61
2022/07/13 20:55:57;;;;;;;5.80;1.30;;;;;;;;;;8281463;28;20044;-62
2022/07/13 20:59:57;;;;;;;4.03;1.50;;;;;;;;;;8278004;28;20025;-63
2022/07/13 21:03:59;;;;;;;5.25;1.30;;;;;;;;;;8280383;28;20033;-61
2022/07/13 21:08:00;;;;;;;4.45;1.30;;;;;;;;;;8278493;28;20783;-61
2022/07/13 21:12:00;;;;;;;1.27;1.17;;;;;;;;;;8286780;28;20112;-61
2022/07/13 21:16:00;;;;;;;13.98;1.77;;;;;;;;;;8287676;28;20457;-60
2022/07/13 21:20:01;;;;;;;2.25;1.30;;;;;;;;;;8287598;28;20030;-60
2022/07/13 21:24:01;;;;;;;3.67;1.40;;;;;;;;;;8288442;28;20734;-59
2022/07/13 21:28:01;;;;;;;2.95;1.38;;;;;;;;;;8286206;28;20033;-60
2022/07/13 21:32:01;;;;;;;2.53;1.40;;;;;;;;;;8286423;28;20041;-60
2022/07/13 21:36:02;;;;;;;2.83;1.50;;;;;;;;;;8289766;28;20033;-60
2022/07/13 21:40:02;;;;;;;3.00;1.30;;;;;;;;;;8286789;28;20021;-59
2022/07/13 21:44:03;;;;;;;8.18;1.50;;;;;;;;;;8287357;28;20048;-59
2022/07/13 21:48:03;;;;;;;3.50;1.30;;;;;;;;;;8285045;28;20633;-60
2022/07/13 21:52:03;;;;;;;2.38;1.33;;;;;;;;;;8287052;28;20091;-60
2022/07/13 21:56:04;;;;;;;2.10;1.27;;;;;;;;;;8285956;28;20026;-59
2022/07/13 22:00:06;;;;;;;2.17;1.30;;;;;;;;;;8285286;28;20665;-60
2022/07/13 22:04:06;;;;;;;1.48;1.38;;;;;;;;;;8286760;28;20025;-61
2022/07/13 22:08:07;;;;;;;3.55;1.33;;;;;;;;;;8287744;28;20135;-59
2022/07/13 22:12:26;;;;;;;3.77;1.57;;;;;;;;;;8283921;28;20045;-60
2022/07/13 22:16:45;;;;;;;4.07;1.50;;;;;;;;;;8286451;28;20132;-60
2022/07/13 22:21:04;;;;;;;2.25;1.40;;;;;;;;;;8285873;28;20060;-60
2022/07/13 22:25:22;;;;;;;2.53;1.48;;;;;;;;;;8287645;28;20026;-60
2022/07/13 22:29:41;;;;;;;1.70;1.30;;;;;;;;;;8284092;28;20653;-60
2022/07/13 22:34:00;;;;;;;4.03;1.52;;;;;;;;;;8282430;28;20442;-60
2022/07/13 22:38:19;;;;;;;3.00;1.42;;;;;;;;;;8285830;28;20129;-60
2022/07/13 22:42:38;;;;;;;4.80;1.58;;;;;;;;;;8284417;28;20100;-59
2022/07/13 22:46:57;;;;;;;1.92;1.40;;;;;;;;;;8286196;28;20049;-60
2022/07/13 22:51:16;;;;;;;3.13;1.40;;;;;;;;;;8283654;28;20064;-60
2022/07/13 22:55:35;;;;;;;2.17;1.50;;;;;;;;;;8286372;28;20036;-60
2022/07/13 22:59:54;;;;;;;2.85;1.50;;;;;;;;;;8284939;28;20825;-59
2022/07/13 23:04:13;;;;;;;2.30;1.45;;;;;;;;;;8285066;28;20033;-60
2022/07/13 23:08:32;;;;;;;1.52;1.40;;;;;;;;;;8284628;28;20036;-60
2022/07/13 23:12:51;;;;;;;1.50;1.40;;;;;;;;;;8285607;28;20090;-61
2022/07/13 23:17:10;;;;;;;3.17;1.40;;;;;;;;;;8284809;28;20045;-59
2022/07/13 23:21:29;;;;;;;1.58;1.38;;;;;;;;;;8285463;28;20026;-61
2022/07/13 23:25:48;;;;;;;2.50;1.40;;;;;;;;;;8285362;28;20041;-59
2022/07/13 23:29:48;;;;;;;2.58;1.70;;;;;;;;;;8286465;28;20053;-59
2022/07/13 23:33:48;;;;;;;1.67;1.40;;;;;;;;;;8282797;28;20143;-60
2022/07/13 23:37:49;;;;;;;2.83;1.30;;;;;;;;;;8284351;28;20129;-61
2022/07/13 23:41:49;;;;;;;3.90;1.40;;;;;;;;;;8285185;28;20292;-60
2022/07/13 23:45:49;;;;;;;4.10;1.40;;;;;;;;;;8283007;28;20029;-59
2022/07/13 23:49:50;;;;;;;3.07;1.83;;;;;;;;;;8284410;28;20040;-60
2022/07/13 23:53:50;;;;;;;1.52;1.30;;;;;;;;;;8283677;28;20033;-63
2022/07/13 23:57:50;;;;;;;1.50;1.40;;;;;;;;;;8285028;28;20037;-59
